createdAt,value
2022-09-17T00:02:07.237Z,13.79
2022-09-17T00:04:36.310Z,13.76
2022-09-17T00:07:04.353Z,13.74
2022-09-17T00:09:32.070Z,13.73
2022-09-17T00:11:59.734Z,13.68
2022-09-17T00:14:27.383Z,13.62
2022-09-17T00:16:58.790Z,13.59
2022-09-17T00:19:29.367Z,13.55
2022-09-17T00:21:58.360Z,13.56
2022-09-17T00:24:25.979Z,13.55
2022-09-17T00:26:53.617Z,13.54
2022-09-17T00:29:21.465Z,13.51
2022-09-17T00:31:49.210Z,13.50
2022-09-17T00:34:17.061Z,13.46
2022-09-17T00:36:44.671Z,13.48
2022-09-17T00:39:15.607Z,13.49
2022-09-17T00:41:43.765Z,13.48
2022-09-17T00:44:44.229Z,13.49
2022-09-17T00:47:25.138Z,13.45
2022-09-17T00:49:56.274Z,13.42
2022-09-17T00:52:28.529Z,13.41
2022-09-17T00:55:02.587Z,13.42
2022-09-17T00:57:30.896Z,13.43
2022-09-17T00:59:59.043Z,13.43
2022-09-17T01:02:27.157Z,13.44
2022-09-17T01:04:56.092Z,13.44
2022-09-17T01:07:59.143Z,13.41
2022-09-17T01:10:39.248Z,13.39
2022-09-17T01:13:14.227Z,13.35
2022-09-17T01:15:46.296Z,13.33
2022-09-17T01:18:24.192Z,13.28
2022-09-17T01:21:08.935Z,13.24
2022-09-17T01:23:56.688Z,13.29
2022-09-17T01:26:46.916Z,13.26
2022-09-17T01:29:21.011Z,13.31
2022-09-17T01:31:52.860Z,13.30
2022-09-17T01:34:25.132Z,13.30
2022-09-17T01:37:00.615Z,13.32
2022-09-17T01:39:34.843Z,13.36
2022-09-17T01:42:09.860Z,13.34
2022-09-17T01:44:42.064Z,13.35
2022-09-17T01:47:16.704Z,13.33
2022-09-17T01:49:48.197Z,13.30
2022-09-17T01:52:16.581Z,13.30
2022-09-17T01:54:47.207Z,13.28
2022-09-17T01:57:18.469Z,13.25
2022-09-17T01:59:49.714Z,13.25
2022-09-17T02:02:24.221Z,13.23
2022-09-17T02:04:58.387Z,13.23
2022-09-17T02:07:26.618Z,13.21
2022-09-17T02:09:59.293Z,13.17
2022-09-17T02:12:32.899Z,13.10
2022-09-17T02:15:02.474Z,13.08
2022-09-17T02:17:34.913Z,13.07
2022-09-17T02:20:03.868Z,13.07
2022-09-17T02:22:36.166Z,13.07
2022-09-17T02:25:07.764Z,13.04
2022-09-17T02:27:41.767Z,13.03
2022-09-17T02:30:10.395Z,13.01
2022-09-17T02:32:39.587Z,13.03
2022-09-17T02:35:09.050Z,12.99
2022-09-17T02:37:36.865Z,13.00
2022-09-17T02:40:05.526Z,12.98
2022-09-17T02:42:36.791Z,12.97
2022-09-17T02:45:08.544Z,12.97
2022-09-17T02:48:01.322Z,12.93
2022-09-17T02:50:38.597Z,12.93
2022-09-17T02:53:14.537Z,12.93
2022-09-17T02:55:44.192Z,12.92
2022-09-17T02:58:21.383Z,12.91
2022-09-17T03:00:49.320Z,12.87
2022-09-17T03:03:22.943Z,12.86
2022-09-17T03:05:51.255Z,12.84
2022-09-17T03:08:20.243Z,12.83
2022-09-17T03:10:49.221Z,12.82
2022-09-17T03:13:17.013Z,12.80
2022-09-17T03:15:44.686Z,12.79
2022-09-17T03:18:12.435Z,12.80
2022-09-17T03:20:41.402Z,12.80
2022-09-17T03:23:09.061Z,12.79
2022-09-17T03:25:36.691Z,12.82
2022-09-17T03:28:04.469Z,12.83
2022-09-17T03:30:32.047Z,12.84
2022-09-17T03:32:59.713Z,12.85
2022-09-17T03:35:27.317Z,12.85
2022-09-17T03:37:56.289Z,12.85
2022-09-17T03:40:24.178Z,12.86
2022-09-17T03:42:52.169Z,12.85
2022-09-17T03:45:19.787Z,12.83
2022-09-17T03:47:47.422Z,12.79
2022-09-17T03:50:14.990Z,12.80
2022-09-17T03:52:44.235Z,12.77
2022-09-17T03:55:13.303Z,12.77
2022-09-17T03:57:40.959Z,12.77
2022-09-17T04:00:09.680Z,12.75
2022-09-17T04:02:37.606Z,12.76
2022-09-17T04:05:06.254Z,12.78
2022-09-17T04:07:33.846Z,12.76
2022-09-17T04:10:01.479Z,12.77
2022-09-17T04:12:30.683Z,12.79
2022-09-17T04:14:58.321Z,12.78
2022-09-17T04:17:25.968Z,12.77
2022-09-17T04:19:53.971Z,12.79
2022-09-17T04:22:21.600Z,12.77
2022-09-17T04:24:49.202Z,12.78
2022-09-17T04:27:16.820Z,12.77
2022-09-17T04:29:45.857Z,12.77
2022-09-17T04:32:13.522Z,12.77
2022-09-17T04:34:41.253Z,12.74
2022-09-17T04:37:09.238Z,12.72
2022-09-17T04:39:38.156Z,12.72
2022-09-17T04:42:05.948Z,12.69
2022-09-17T04:44:33.670Z,12.67
2022-09-17T04:47:02.996Z,12.67
2022-09-17T04:49:31.071Z,12.69
2022-09-17T04:51:58.705Z,12.72
2022-09-17T04:54:26.434Z,12.70
2022-09-17T04:56:54.159Z,12.67
2022-09-17T04:59:21.769Z,12.65
2022-09-17T05:01:49.528Z,12.65
2022-09-17T05:04:18.636Z,12.64
2022-09-17T05:06:46.284Z,12.65
2022-09-17T05:09:14.786Z,12.65
2022-09-17T05:11:42.448Z,12.71
2022-09-17T05:14:10.045Z,12.71
2022-09-17T05:16:37.725Z,12.75
2022-09-17T05:19:05.551Z,12.75
2022-09-17T05:21:34.621Z,12.71
2022-09-17T05:24:02.584Z,12.73
2022-09-17T05:26:30.357Z,12.72
2022-09-17T05:28:58.196Z,12.71
2022-09-17T05:31:25.951Z,12.69
2022-09-17T05:33:53.582Z,12.65
2022-09-17T05:36:21.211Z,12.66
2022-09-17T05:38:50.323Z,12.67
2022-09-17T05:41:17.955Z,12.63
2022-09-17T05:43:45.574Z,12.61
2022-09-17T05:46:13.288Z,12.60
2022-09-17T05:48:40.844Z,12.57
2022-09-17T05:51:08.515Z,12.55
2022-09-17T05:53:36.119Z,12.54
2022-09-17T05:56:05.300Z,12.49
2022-09-17T05:58:34.273Z,12.53
2022-09-17T06:01:02.148Z,12.52
2022-09-17T06:03:29.833Z,12.56
2022-09-17T06:05:59.187Z,12.20
2022-09-17T06:08:28.840Z,11.98
2022-09-17T06:11:01.525Z,11.92
2022-09-17T06:13:31.636Z,11.82
2022-09-17T06:15:59.303Z,11.74
2022-09-17T06:18:27.049Z,11.69
2022-09-17T06:20:55.860Z,11.66
2022-09-17T06:23:24.048Z,11.65
2022-09-17T06:25:53.677Z,11.67
2022-09-17T06:28:21.384Z,11.67
2022-09-17T06:30:52.677Z,11.70
2022-09-17T06:33:20.363Z,11.70
2022-09-17T06:35:48.116Z,11.71
2022-09-17T06:38:15.926Z,11.74
2022-09-17T06:40:43.568Z,11.76
2022-09-17T06:43:11.369Z,11.80
2022-09-17T06:45:39.479Z,11.83
2022-09-17T06:48:08.702Z,11.86
2022-09-17T06:50:40.581Z,11.88
2022-09-17T06:53:10.873Z,11.86
2022-09-17T06:55:38.576Z,11.87
2022-09-17T06:58:06.176Z,11.89
2022-09-17T07:00:33.741Z,11.91
2022-09-17T07:03:02.115Z,11.95
2022-09-17T07:05:32.818Z,11.96
2022-09-17T07:08:02.980Z,11.99
2022-09-17T07:10:32.902Z,12.01
2022-09-17T07:13:00.531Z,12.06
2022-09-17T07:15:28.145Z,12.10
2022-09-17T07:17:55.750Z,12.13
2022-09-17T07:20:23.424Z,12.17
2022-09-17T07:22:58.834Z,12.21
2022-09-17T07:25:27.395Z,12.24
2022-09-17T07:27:55.229Z,12.27
2022-09-17T07:30:22.987Z,12.33
2022-09-17T07:32:50.551Z,12.38
2022-09-17T07:35:18.570Z,12.43
2022-09-17T07:37:47.306Z,12.47
2022-09-17T07:40:16.426Z,12.52
2022-09-17T07:42:44.039Z,12.56
2022-09-17T07:45:12.210Z,12.59
2022-09-17T07:47:41.373Z,12.64
2022-09-17T07:50:10.320Z,12.68
2022-09-17T07:52:37.960Z,12.74
2022-09-17T07:55:06.259Z,12.79
2022-09-17T07:57:35.282Z,12.83
2022-09-17T08:00:03.810Z,12.86
2022-09-17T08:02:31.686Z,12.87
2022-09-17T08:04:59.418Z,12.90
2022-09-17T08:07:27.156Z,12.94
2022-09-17T08:09:54.792Z,12.98
2022-09-17T08:12:22.816Z,13.04
2022-09-17T08:14:51.890Z,13.10
2022-09-17T08:17:19.449Z,13.16
2022-09-17T08:19:47.412Z,13.22
2022-09-17T08:22:15.001Z,13.29
2022-09-17T08:24:43.117Z,13.34
2022-09-17T08:27:10.750Z,13.39
2022-09-17T08:29:39.104Z,13.44
2022-09-17T08:32:08.340Z,13.47
2022-09-17T08:34:37.056Z,13.46
2022-09-17T08:37:04.745Z,13.46
2022-09-17T08:39:33.022Z,13.45
2022-09-17T08:42:06.975Z,13.44
2022-09-17T08:44:41.603Z,13.43
2022-09-17T08:47:18.501Z,13.46
2022-09-17T08:49:50.856Z,13.51
2022-09-17T08:52:43.587Z,13.57
2022-09-17T08:55:21.340Z,13.59
2022-09-17T08:57:56.251Z,13.67
2022-09-17T09:00:24.872Z,13.73
2022-09-17T09:03:06.083Z,13.79
2022-09-17T09:05:41.025Z,13.85
2022-09-17T09:08:17.426Z,14.27
2022-09-17T09:10:52.925Z,14.40
2022-09-17T09:13:23.358Z,14.46
2022-09-17T09:15:56.065Z,14.56
2022-09-17T09:18:26.632Z,14.60
2022-09-17T09:20:55.781Z,14.64
2022-09-17T09:23:30.505Z,14.69
2022-09-17T09:26:06.367Z,14.76
2022-09-17T09:28:51.203Z,14.83
2022-09-17T09:31:43.354Z,14.87
2022-09-17T09:34:13.998Z,14.91
2022-09-17T09:36:41.745Z,15.01
2022-09-17T09:39:16.230Z,15.06
2022-09-17T09:41:46.567Z,15.04
2022-09-17T09:44:17.528Z,15.16
2022-09-17T09:47:05.340Z,15.19
2022-09-17T09:49:50.338Z,15.15
2022-09-17T09:52:26.680Z,15.15
2022-09-17T09:55:03.188Z,15.12
2022-09-17T09:57:38.047Z,15.09
2022-09-17T10:00:26.961Z,15.09
2022-09-17T10:02:57.757Z,15.09
2022-09-17T10:05:26.790Z,15.06
2022-09-17T10:07:54.500Z,15.01
2022-09-17T10:10:22.234Z,15.02
2022-09-17T10:12:49.857Z,15.02
2022-09-17T10:15:25.874Z,14.78
2022-09-17T10:18:13.634Z,14.86
2022-09-17T10:20:53.558Z,14.65
2022-09-17T10:23:21.193Z,14.37
2022-09-17T10:25:49.368Z,14.40
2022-09-17T10:28:36.280Z,14.41
2022-09-17T10:31:08.828Z,14.26
2022-09-17T10:33:38.513Z,14.33
2022-09-17T10:36:08.782Z,14.18
2022-09-17T10:38:38.622Z,14.25
2022-09-17T10:41:11.485Z,14.67
2022-09-17T10:43:38.947Z,14.28
2022-09-17T10:46:06.563Z,14.16
2022-09-17T10:48:37.526Z,14.25
2022-09-17T10:51:08.881Z,14.32
2022-09-17T10:53:36.928Z,14.22
2022-09-17T10:56:10.729Z,14.34
2022-09-17T10:58:49.611Z,14.25
2022-09-17T11:01:21.601Z,14.24
2022-09-17T11:03:55.803Z,14.35
2022-09-17T11:06:38.452Z,14.38
2022-09-17T11:09:09.332Z,14.42
2022-09-17T11:11:40.640Z,14.46
2022-09-17T11:14:11.493Z,14.51
2022-09-17T11:16:42.648Z,14.67
2022-09-17T11:19:16.694Z,14.75
2022-09-17T11:21:48.005Z,14.82
2022-09-17T11:25:04.647Z,15.27
2022-09-17T11:27:47.713Z,15.44
2022-09-17T11:30:20.272Z,15.55
2022-09-17T11:33:09.600Z,15.72
2022-09-17T11:35:38.758Z,15.81
2022-09-17T11:38:11.475Z,15.84
2022-09-17T11:40:42.680Z,15.84
2022-09-17T11:43:18.262Z,15.69
2022-09-17T11:45:53.244Z,15.57
2022-09-17T11:48:22.141Z,15.53
2022-09-17T11:50:53.121Z,15.45
2022-09-17T11:53:24.247Z,15.40
2022-09-17T11:55:56.578Z,15.39
2022-09-17T11:58:29.491Z,15.41
2022-09-17T12:01:02.553Z,15.50
2022-09-17T12:03:32.206Z,15.64
2022-09-17T12:06:03.661Z,15.73
2022-09-17T12:08:38.098Z,15.66
2022-09-17T12:11:10.078Z,15.41
2022-09-17T12:13:41.337Z,15.16
2022-09-17T12:16:14.898Z,15.00
2022-09-17T12:18:51.098Z,14.84
2022-09-17T12:21:21.420Z,14.65
2022-09-17T12:23:54.030Z,14.58
2022-09-17T12:26:32.270Z,14.49
2022-09-17T12:29:05.769Z,14.39
2022-09-17T12:31:39.640Z,14.41
2022-09-17T12:34:21.849Z,14.52
2022-09-17T12:36:52.756Z,14.67
2022-09-17T12:39:39.194Z,14.86
2022-09-17T12:42:18.086Z,15.05
2022-09-17T12:45:03.961Z,15.20
2022-09-17T12:47:55.285Z,15.35
2022-09-17T12:50:28.275Z,15.49
2022-09-17T12:53:08.170Z,15.65
2022-09-17T12:55:43.818Z,15.73
2022-09-17T12:58:24.451Z,15.79
2022-09-17T13:00:54.706Z,15.88
2022-09-17T13:03:26.265Z,15.96
2022-09-17T13:06:27.327Z,15.99
2022-09-17T13:09:25.833Z,15.68
2022-09-17T13:12:07.591Z,15.34
2022-09-17T13:15:01.390Z,15.02
2022-09-17T13:17:34.602Z,14.76
2022-09-17T13:20:04.898Z,14.56
2022-09-17T13:22:34.455Z,14.42
2022-09-17T13:25:05.660Z,14.34
2022-09-17T13:27:36.105Z,14.28
2022-09-17T13:30:05.929Z,14.28
2022-09-17T13:32:47.438Z,14.36
2022-09-17T13:35:51.032Z,14.45
2022-09-17T13:38:23.144Z,14.53
2022-09-17T13:40:51.856Z,14.63
2022-09-17T13:43:23.935Z,14.65
2022-09-17T13:46:12.303Z,14.72
2022-09-17T13:48:49.138Z,14.81
2022-09-17T13:51:47.119Z,14.90
2022-09-17T13:54:16.266Z,14.90
2022-09-17T13:56:45.910Z,14.84
2022-09-17T13:59:16.931Z,14.83
2022-09-17T14:02:14.315Z,14.76
2022-09-17T14:04:50.008Z,14.88
2022-09-17T14:07:37.260Z,14.95
2022-09-17T14:10:31.247Z,15.09
2022-09-17T14:13:02.620Z,15.17
2022-09-17T14:15:55.845Z,15.25
2022-09-17T14:18:52.271Z,15.33
2022-09-17T14:21:27.017Z,15.36
2022-09-17T14:23:57.916Z,15.41
2022-09-17T14:26:52.359Z,15.49
2022-09-17T14:29:50.265Z,15.55
2022-09-17T14:32:21.222Z,15.47
2022-09-17T14:34:50.464Z,15.25
2022-09-17T14:37:20.831Z,15.01
2022-09-17T14:39:50.154Z,14.78
2022-09-17T14:42:22.296Z,14.63
2022-09-17T14:44:55.841Z,14.49
2022-09-17T14:47:23.711Z,14.34
2022-09-17T14:49:52.728Z,14.31
2022-09-17T14:52:28.824Z,14.32
2022-09-17T14:55:18.808Z,14.26
2022-09-17T14:57:47.478Z,14.20
2022-09-17T15:00:21.788Z,14.14
2022-09-17T15:02:52.073Z,14.13
2022-09-17T15:05:24.001Z,14.19
2022-09-17T15:07:51.687Z,14.23
2022-09-17T15:10:20.806Z,14.31
2022-09-17T15:12:49.146Z,14.39
2022-09-17T15:15:20.895Z,14.50
2022-09-17T15:17:49.396Z,14.57
2022-09-17T15:21:35.723Z,14.65
2022-09-17T15:24:11.210Z,14.74
2022-09-17T15:26:41.438Z,14.80
2022-09-17T15:29:12.391Z,14.88
2022-09-17T15:31:40.252Z,14.90
2022-09-17T15:34:07.994Z,14.94
2022-09-17T15:36:37.536Z,14.93
2022-09-17T15:39:29.831Z,14.95
2022-09-17T15:41:57.984Z,14.95
2022-09-17T15:44:31.512Z,14.94
2022-09-17T15:47:32.832Z,14.98
2022-09-17T15:50:17.144Z,15.00
2022-09-17T15:52:46.490Z,15.00
2022-09-17T15:55:35.681Z,14.99
2022-09-17T15:58:05.123Z,14.99
2022-09-17T16:00:33.116Z,15.00
2022-09-17T16:03:54.194Z,14.97
2022-09-17T16:06:38.385Z,14.90
2022-09-17T16:09:37.805Z,14.89
2022-09-17T16:12:05.703Z,14.91
2022-09-17T16:14:33.262Z,14.92
2022-09-17T16:17:00.953Z,14.95
2022-09-17T16:19:28.580Z,14.94
2022-09-17T16:21:56.163Z,14.90
2022-09-17T16:24:25.153Z,14.88
2022-09-17T16:26:52.821Z,14.86
2022-09-17T16:29:25.991Z,14.84
2022-09-17T16:31:54.634Z,14.73
2022-09-17T16:34:22.416Z,14.70
2022-09-17T16:36:53.736Z,14.76
2022-09-17T16:39:21.583Z,14.70
2022-09-17T16:41:50.736Z,14.59
2022-09-17T16:44:19.657Z,14.62
2022-09-17T16:46:47.404Z,14.57
2022-09-17T16:49:23.090Z,14.58
2022-09-17T16:51:51.277Z,14.45
2022-09-17T16:54:18.937Z,14.53
2022-09-17T16:56:46.515Z,14.54
2022-09-17T16:59:15.794Z,14.55
2022-09-17T17:01:43.549Z,14.52
2022-09-17T17:04:11.208Z,14.51
2022-09-17T17:06:38.897Z,14.49
2022-09-17T17:09:06.535Z,14.46
2022-09-17T17:11:34.157Z,14.45
2022-09-17T17:14:05.222Z,14.43
2022-09-17T17:16:34.308Z,14.42
2022-09-17T17:19:02.812Z,14.43
2022-09-17T17:21:30.505Z,14.41
2022-09-17T17:23:58.130Z,14.42
2022-09-17T17:26:25.750Z,14.39
2022-09-17T17:28:53.396Z,14.37
2022-09-17T17:31:21.084Z,14.35
2022-09-17T17:33:50.155Z,14.37
2022-09-17T17:36:17.792Z,14.38
2022-09-17T17:38:45.533Z,14.35
2022-09-17T17:41:14.830Z,14.34
2022-09-17T17:43:42.800Z,14.30
2022-09-17T17:46:11.599Z,14.27
2022-09-17T17:48:39.353Z,14.24
2022-09-17T17:51:10.063Z,14.19
2022-09-17T17:53:38.167Z,14.16
2022-09-17T17:56:07.583Z,14.14
2022-09-17T17:58:35.984Z,14.12
2022-09-17T18:01:12.071Z,14.13
2022-09-17T18:03:39.716Z,14.11
2022-09-17T18:06:09.186Z,14.10
2022-09-17T18:08:38.062Z,14.08
2022-09-17T18:11:08.134Z,14.08
2022-09-17T18:13:36.242Z,14.09
2022-09-17T18:16:05.275Z,14.09
2022-09-17T18:18:34.979Z,14.04
2022-09-17T18:21:03.920Z,14.04
2022-09-17T18:23:34.730Z,14.02
2022-09-17T18:26:03.268Z,13.99
2022-09-17T18:28:31.700Z,13.97
2022-09-17T18:31:05.648Z,13.95
2022-09-17T18:33:33.884Z,13.90
2022-09-17T18:36:02.973Z,13.91
2022-09-17T18:38:31.155Z,13.91
2022-09-17T18:41:05.303Z,13.91
2022-09-17T18:43:34.360Z,13.90
2022-09-17T18:46:02.365Z,13.89
2022-09-17T18:48:35.602Z,13.88
2022-09-17T18:51:05.486Z,13.89
2022-09-17T18:53:36.088Z,13.88
2022-09-17T18:56:07.269Z,13.89
2022-09-17T18:58:34.934Z,13.91
2022-09-17T19:01:06.032Z,13.90
2022-09-17T19:03:33.998Z,13.91
2022-09-17T19:06:02.177Z,13.85
2022-09-17T19:08:29.760Z,13.93
2022-09-17T19:10:57.866Z,13.93
2022-09-17T19:13:27.597Z,13.94
2022-09-17T19:16:00.608Z,13.95
2022-09-17T19:18:28.474Z,13.94
2022-09-17T19:21:00.430Z,13.92
2022-09-17T19:23:28.174Z,13.91
2022-09-17T19:25:55.972Z,13.91
2022-09-17T19:28:23.914Z,13.94
2022-09-17T19:30:53.063Z,13.92
2022-09-17T19:33:20.759Z,13.88
2022-09-17T19:35:50.649Z,13.86
2022-09-17T19:38:18.431Z,13.86
2022-09-17T19:40:56.378Z,13.87
2022-09-17T19:43:24.021Z,13.87
2022-09-17T19:45:53.188Z,13.84
2022-09-17T19:48:25.094Z,13.80
2022-09-17T19:50:53.342Z,13.83
2022-09-17T19:53:21.274Z,13.84
2022-09-17T19:55:49.182Z,13.82
2022-09-17T19:58:17.296Z,13.82
2022-09-17T20:00:45.040Z,13.80
2022-09-17T20:03:14.337Z,13.75
2022-09-17T20:05:42.105Z,13.75
2022-09-17T20:08:09.762Z,13.77
2022-09-17T20:10:38.437Z,13.73
2022-09-17T20:13:07.081Z,13.77
2022-09-17T20:15:35.750Z,13.75
2022-09-17T20:18:03.456Z,13.71
2022-09-17T20:20:32.521Z,13.69
2022-09-17T20:23:00.124Z,13.67
2022-09-17T20:25:27.809Z,13.63
2022-09-17T20:27:55.453Z,13.64
2022-09-17T20:30:23.147Z,13.61
2022-09-17T20:32:50.799Z,13.59
2022-09-17T20:35:18.454Z,13.61
2022-09-17T20:40:35.337Z,13.59
2022-09-17T20:43:03.127Z,13.56
2022-09-17T20:45:30.768Z,13.53
2022-09-17T20:47:58.439Z,13.52
2022-09-17T20:50:26.086Z,13.50
2022-09-17T20:52:55.114Z,13.50
2022-09-17T20:55:22.843Z,13.48
2022-09-17T20:57:53.592Z,13.48
2022-09-17T21:00:21.709Z,13.51
2022-09-17T21:02:54.235Z,13.49
2022-09-17T21:05:21.999Z,13.49
2022-09-17T21:07:49.769Z,13.47
2022-09-17T21:10:18.765Z,13.43
2022-09-17T21:12:46.365Z,13.38
2022-09-17T21:15:14.915Z,13.37
2022-09-17T21:17:45.347Z,13.37
2022-09-17T21:20:12.985Z,13.38
2022-09-17T21:22:40.695Z,13.38
2022-09-17T21:25:08.951Z,13.35
2022-09-17T21:27:37.958Z,13.33
2022-09-17T21:30:09.605Z,13.38
2022-09-17T21:32:38.189Z,13.39
2022-09-17T21:35:06.501Z,13.38
2022-09-17T21:37:34.187Z,13.38
2022-09-17T21:40:02.154Z,13.37
2022-09-17T21:42:29.884Z,13.34
2022-09-17T21:44:58.995Z,13.33
2022-09-17T21:47:26.630Z,13.29
2022-09-17T21:49:54.265Z,13.33
2022-09-17T21:52:21.941Z,13.33
2022-09-17T21:54:49.557Z,13.33
2022-09-17T21:57:17.308Z,13.31
2022-09-17T21:59:44.980Z,13.32
2022-09-17T22:02:14.141Z,13.32
2022-09-17T22:04:41.827Z,13.35
2022-09-17T22:07:09.469Z,13.36
2022-09-17T22:09:37.100Z,13.40
2022-09-17T22:12:06.422Z,13.39
2022-09-17T22:14:34.219Z,13.38
2022-09-17T22:17:01.838Z,13.37
2022-09-17T22:19:30.906Z,13.34
2022-09-17T22:21:58.519Z,13.34
2022-09-17T22:24:26.646Z,13.33
2022-09-17T22:26:57.874Z,13.34
2022-09-17T22:29:27.311Z,13.31
2022-09-17T22:31:55.256Z,13.32
2022-09-17T22:34:23.831Z,13.39
2022-09-17T22:36:52.869Z,13.42
2022-09-17T22:39:21.358Z,13.48
2022-09-17T22:41:49.113Z,13.44
2022-09-17T22:44:18.633Z,13.40
2022-09-17T22:46:47.705Z,13.45
2022-09-17T22:49:15.894Z,13.45
2022-09-17T22:51:44.750Z,13.47
2022-09-17T22:54:15.239Z,13.45
2022-09-17T22:56:43.851Z,13.42
2022-09-17T22:59:11.788Z,13.41
2022-09-17T23:01:40.619Z,13.41
2022-09-17T23:04:08.383Z,13.45
2022-09-17T23:06:38.455Z,13.45
2022-09-17T23:09:07.047Z,13.45
2022-09-17T23:11:38.413Z,13.40
2022-09-17T23:14:08.373Z,13.44
2022-09-17T23:16:37.008Z,13.42
2022-09-17T23:19:05.236Z,13.43
2022-09-17T23:21:33.146Z,13.41
2022-09-17T23:24:00.998Z,13.38
2022-09-17T23:26:28.959Z,13.38
2022-09-17T23:29:02.409Z,13.39
2022-09-17T23:31:31.604Z,13.38
2022-09-17T23:34:00.313Z,13.41
2022-09-17T23:36:31.356Z,13.42
2022-09-17T23:38:59.797Z,13.40
2022-09-17T23:41:28.919Z,13.38
2022-09-17T23:43:59.840Z,13.37
2022-09-17T23:46:31.142Z,13.39
2022-09-17T23:48:58.990Z,13.39
2022-09-17T23:51:27.982Z,13.39
2022-09-17T23:53:57.365Z,13.40
2022-09-17T23:56:26.460Z,13.41
2022-09-17T23:58:54.895Z,13.42
